sensor_id;sensor_type;location;lat;lon;timestamp;temperature;humidity
6879;DHT22;3478;51.462;7.338;2022-10-31T00:04:10;15.60;99.90
6879;DHT22;3478;51.462;7.338;2022-10-31T00:09:12;15.60;99.90
6879;DHT22;3478;51.462;7.338;2022-10-31T00:14:15;15.70;99.90
6879;DHT22;3478;51.462;7.338;2022-10-31T00:19:17;15.60;99.90
6879;DHT22;3478;51.462;7.338;2022-10-31T00:24:19;15.60;99.90
6879;DHT22;3478;51.462;7.338;2022-10-31T00:29:22;15.70;99.90
6879;DHT22;3478;51.462;7.338;2022-10-31T00:34:24;15.70;99.90
6879;DHT22;3478;51.462;7.338;2022-10-31T00:39:25;15.70;99.90
6879;DHT22;3478;51.462;7.338;2022-10-31T00:44:29;15.70;99.90
6879;DHT22;3478;51.462;7.338;2022-10-31T00:49:30;15.70;99.90
6879;DHT22;3478;51.462;7.338;2022-10-31T00:54:32;15.70;99.90
6879;DHT22;3478;51.462;7.338;2022-10-31T00:59:35;15.70;99.90
6879;DHT22;3478;51.462;7.338;2022-10-31T01:04:37;15.70;99.90
6879;DHT22;3478;51.462;7.338;2022-10-31T01:09:39;15.70;99.90
6879;DHT22;3478;51.462;7.338;2022-10-31T01:14:44;15.70;99.90
6879;DHT22;3478;51.462;7.338;2022-10-31T01:19:46;15.60;99.90
6879;DHT22;3478;51.462;7.338;2022-10-31T01:24:48;15.60;99.90
6879;DHT22;3478;51.462;7.338;2022-10-31T01:29:51;15.60;99.90
6879;DHT22;3478;51.462;7.338;2022-10-31T01:34:53;15.70;99.90
6879;DHT22;3478;51.462;7.338;2022-10-31T01:39:55;15.60;99.90
6879;DHT22;3478;51.462;7.338;2022-10-31T01:45:00;15.60;99.90
6879;DHT22;3478;51.462;7.338;2022-10-31T01:50:06;15.70;99.90
6879;DHT22;3478;51.462;7.338;2022-10-31T01:55:15;15.70;99.90
6879;DHT22;3478;51.462;7.338;2022-10-31T02:00:20;15.60;99.90
6879;DHT22;3478;51.462;7.338;2022-10-31T02:05:25;15.40;99.90
6879;DHT22;3478;51.462;7.338;2022-10-31T02:10:30;15.40;99.90
6879;DHT22;3478;51.462;7.338;2022-10-31T02:15:35;15.30;99.90
6879;DHT22;3478;51.462;7.338;2022-10-31T02:20:45;15.10;99.90
6879;DHT22;3478;51.462;7.338;2022-10-31T02:26:01;15.00;99.90
6879;DHT22;3478;51.462;7.338;2022-10-31T02:31:19;14.80;99.90
6879;DHT22;3478;51.462;7.338;2022-10-31T02:36:31;14.80;99.90
6879;DHT22;3478;51.462;7.338;2022-10-31T02:41:42;14.70;99.90
6879;DHT22;3478;51.462;7.338;2022-10-31T02:46:53;14.70;99.90
6879;DHT22;3478;51.462;7.338;2022-10-31T02:51:57;14.70;99.90
6879;DHT22;3478;51.462;7.338;2022-10-31T02:57:02;14.70;99.90
6879;DHT22;3478;51.462;7.338;2022-10-31T03:02:24;14.60;99.90
6879;DHT22;3478;51.462;7.338;2022-10-31T03:07:33;14.60;99.90
6879;DHT22;3478;51.462;7.338;2022-10-31T03:12:39;14.60;99.90
6879;DHT22;3478;51.462;7.338;2022-10-31T03:17:50;14.60;99.90
6879;DHT22;3478;51.462;7.338;2022-10-31T03:22:56;14.60;99.90
6879;DHT22;3478;51.462;7.338;2022-10-31T03:27:59;14.60;99.90
6879;DHT22;3478;51.462;7.338;2022-10-31T03:33:07;14.50;99.90
6879;DHT22;3478;51.462;7.338;2022-10-31T03:38:11;14.50;99.90
6879;DHT22;3478;51.462;7.338;2022-10-31T03:43:18;14.40;99.90
6879;DHT22;3478;51.462;7.338;2022-10-31T03:48:25;14.30;99.90
6879;DHT22;3478;51.462;7.338;2022-10-31T03:53:32;14.20;99.90
6879;DHT22;3478;51.462;7.338;2022-10-31T03:58:39;14.10;99.90
6879;DHT22;3478;51.462;7.338;2022-10-31T04:03:45;14.00;99.90
6879;DHT22;3478;51.462;7.338;2022-10-31T04:08:50;13.90;99.90
6879;DHT22;3478;51.462;7.338;2022-10-31T04:13:53;13.70;99.90
6879;DHT22;3478;51.462;7.338;2022-10-31T04:18:57;13.60;99.90
6879;DHT22;3478;51.462;7.338;2022-10-31T04:23:59;13.60;99.90
6879;DHT22;3478;51.462;7.338;2022-10-31T04:29:01;13.50;99.90
6879;DHT22;3478;51.462;7.338;2022-10-31T04:34:04;13.50;99.90
6879;DHT22;3478;51.462;7.338;2022-10-31T04:39:07;13.50;99.90
6879;DHT22;3478;51.462;7.338;2022-10-31T04:44:09;13.50;99.90
6879;DHT22;3478;51.462;7.338;2022-10-31T04:49:12;13.60;99.90
6879;DHT22;3478;51.462;7.338;2022-10-31T04:54:14;13.60;99.90
6879;DHT22;3478;51.462;7.338;2022-10-31T04:59:16;13.70;99.90
6879;DHT22;3478;51.462;7.338;2022-10-31T05:04:19;13.60;99.90
6879;DHT22;3478;51.462;7.338;2022-10-31T05:09:21;13.60;99.90
6879;DHT22;3478;51.462;7.338;2022-10-31T05:14:23;13.50;99.90
6879;DHT22;3478;51.462;7.338;2022-10-31T05:19:26;13.40;99.90
6879;DHT22;3478;51.462;7.338;2022-10-31T05:24:28;13.40;99.90
6879;DHT22;3478;51.462;7.338;2022-10-31T05:29:29;13.40;99.90
6879;DHT22;3478;51.462;7.338;2022-10-31T05:34:35;13.40;99.90
6879;DHT22;3478;51.462;7.338;2022-10-31T05:39:36;13.40;99.90
6879;DHT22;3478;51.462;7.338;2022-10-31T05:44:38;13.30;99.90
6879;DHT22;3478;51.462;7.338;2022-10-31T05:49:41;13.30;99.90
6879;DHT22;3478;51.462;7.338;2022-10-31T05:54:43;13.30;99.90
6879;DHT22;3478;51.462;7.338;2022-10-31T05:59:45;13.20;99.90
6879;DHT22;3478;51.462;7.338;2022-10-31T06:04:48;13.20;99.90
6879;DHT22;3478;51.462;7.338;2022-10-31T06:09:50;13.20;99.90
6879;DHT22;3478;51.462;7.338;2022-10-31T06:14:52;13.20;99.90
6879;DHT22;3478;51.462;7.338;2022-10-31T06:19:56;13.20;99.90
6879;DHT22;3478;51.462;7.338;2022-10-31T06:24:58;13.10;99.90
6879;DHT22;3478;51.462;7.338;2022-10-31T06:29:59;13.10;99.90
6879;DHT22;3478;51.462;7.338;2022-10-31T06:35:03;13.00;99.90
6879;DHT22;3478;51.462;7.338;2022-10-31T06:40:06;13.10;99.90
6879;DHT22;3478;51.462;7.338;2022-10-31T06:45:08;13.10;99.90
6879;DHT22;3478;51.462;7.338;2022-10-31T06:50:11;13.20;99.90
6879;DHT22;3478;51.462;7.338;2022-10-31T06:55:13;13.20;99.90
6879;DHT22;3478;51.462;7.338;2022-10-31T07:00:16;13.30;99.90
6879;DHT22;3478;51.462;7.338;2022-10-31T07:05:19;13.30;99.90
6879;DHT22;3478;51.462;7.338;2022-10-31T07:10:21;13.40;99.90
6879;DHT22;3478;51.462;7.338;2022-10-31T07:15:23;13.50;99.90
6879;DHT22;3478;51.462;7.338;2022-10-31T07:20:27;13.60;99.90
6879;DHT22;3478;51.462;7.338;2022-10-31T07:25:29;13.70;99.90
6879;DHT22;3478;51.462;7.338;2022-10-31T07:30:31;13.70;99.90
6879;DHT22;3478;51.462;7.338;2022-10-31T07:35:34;13.80;99.90
6879;DHT22;3478;51.462;7.338;2022-10-31T07:40:36;13.80;99.90
6879;DHT22;3478;51.462;7.338;2022-10-31T07:45:38;13.90;99.90
6879;DHT22;3478;51.462;7.338;2022-10-31T07:50:41;14.00;99.90
6879;DHT22;3478;51.462;7.338;2022-10-31T07:55:43;14.00;99.90
6879;DHT22;3478;51.462;7.338;2022-10-31T08:00:46;14.00;99.90
6879;DHT22;3478;51.462;7.338;2022-10-31T08:05:49;14.10;99.90
6879;DHT22;3478;51.462;7.338;2022-10-31T08:10:51;14.10;99.90
6879;DHT22;3478;51.462;7.338;2022-10-31T08:15:53;14.30;99.90
6879;DHT22;3478;51.462;7.338;2022-10-31T08:20:57;14.40;99.90
6879;DHT22;3478;51.462;7.338;2022-10-31T08:25:59;14.40;99.90
6879;DHT22;3478;51.462;7.338;2022-10-31T08:31:01;14.50;99.90
6879;DHT22;3478;51.462;7.338;2022-10-31T08:36:05;14.70;99.90
6879;DHT22;3478;51.462;7.338;2022-10-31T08:41:07;14.80;99.90
6879;DHT22;3478;51.462;7.338;2022-10-31T08:46:09;15.00;99.90
6879;DHT22;3478;51.462;7.338;2022-10-31T08:51:12;15.10;99.90
6879;DHT22;3478;51.462;7.338;2022-10-31T08:56:14;15.30;99.90
6879;DHT22;3478;51.462;7.338;2022-10-31T09:01:16;15.60;99.90
6879;DHT22;3478;51.462;7.338;2022-10-31T09:06:19;15.90;99.90
6879;DHT22;3478;51.462;7.338;2022-10-31T09:11:21;16.00;99.90
6879;DHT22;3478;51.462;7.338;2022-10-31T09:16:22;16.20;99.90
6879;DHT22;3478;51.462;7.338;2022-10-31T09:21:26;16.40;99.90
6879;DHT22;3478;51.462;7.338;2022-10-31T09:26:27;16.60;99.90
6879;DHT22;3478;51.462;7.338;2022-10-31T09:31:29;16.80;99.90
6879;DHT22;3478;51.462;7.338;2022-10-31T09:36:32;17.00;99.90
6879;DHT22;3478;51.462;7.338;2022-10-31T09:41:48;17.10;99.90
6879;DHT22;3478;51.462;7.338;2022-10-31T09:46:55;17.30;99.90
6879;DHT22;3478;51.462;7.338;2022-10-31T09:52:02;17.30;99.90
6879;DHT22;3478;51.462;7.338;2022-10-31T09:57:11;17.30;99.90
6879;DHT22;3478;51.462;7.338;2022-10-31T10:02:17;17.40;99.90
6879;DHT22;3478;51.462;7.338;2022-10-31T10:07:30;17.50;99.90
6879;DHT22;3478;51.462;7.338;2022-10-31T10:12:43;17.50;99.90
6879;DHT22;3478;51.462;7.338;2022-10-31T10:17:55;17.40;99.90
6879;DHT22;3478;51.462;7.338;2022-10-31T10:23:16;17.40;99.90
6879;DHT22;3478;51.462;7.338;2022-10-31T10:28:25;17.50;99.90
6879;DHT22;3478;51.462;7.338;2022-10-31T10:33:31;17.70;99.90
6879;DHT22;3478;51.462;7.338;2022-10-31T10:38:38;17.90;99.90
6879;DHT22;3478;51.462;7.338;2022-10-31T10:43:40;18.10;99.90
6879;DHT22;3478;51.462;7.338;2022-10-31T10:48:44;18.20;99.90
6879;DHT22;3478;51.462;7.338;2022-10-31T10:53:55;18.10;99.90
6879;DHT22;3478;51.462;7.338;2022-10-31T10:59:03;18.10;99.90
6879;DHT22;3478;51.462;7.338;2022-10-31T11:04:21;18.20;99.90
6879;DHT22;3478;51.462;7.338;2022-10-31T11:09:26;18.30;99.90
6879;DHT22;3478;51.462;7.338;2022-10-31T11:14:28;18.30;99.90
6879;DHT22;3478;51.462;7.338;2022-10-31T11:19:30;18.40;99.90
6879;DHT22;3478;51.462;7.338;2022-10-31T11:24:38;18.60;99.90
6879;DHT22;3478;51.462;7.338;2022-10-31T11:29:40;18.70;99.90
6879;DHT22;3478;51.462;7.338;2022-10-31T11:34:43;18.70;99.90
6879;DHT22;3478;51.462;7.338;2022-10-31T11:39:52;18.70;99.90
6879;DHT22;3478;51.462;7.338;2022-10-31T11:44:55;18.70;99.90
6879;DHT22;3478;51.462;7.338;2022-10-31T11:49:58;18.90;99.90
6879;DHT22;3478;51.462;7.338;2022-10-31T11:55:17;19.20;99.90
6879;DHT22;3478;51.462;7.338;2022-10-31T12:00:22;19.60;99.90
6879;DHT22;3478;51.462;7.338;2022-10-31T12:05:26;19.80;99.90
6879;DHT22;3478;51.462;7.338;2022-10-31T12:10:35;19.80;99.90
6879;DHT22;3478;51.462;7.338;2022-10-31T12:15:46;19.90;99.90
6879;DHT22;3478;51.462;7.338;2022-10-31T12:20:57;20.00;99.90
6879;DHT22;3478;51.462;7.338;2022-10-31T12:26:12;20.00;99.90
6879;DHT22;3478;51.462;7.338;2022-10-31T12:31:31;20.10;99.90
6879;DHT22;3478;51.462;7.338;2022-10-31T12:36:43;20.20;99.90
6879;DHT22;3478;51.462;7.338;2022-10-31T12:41:52;20.40;99.90
6879;DHT22;3478;51.462;7.338;2022-10-31T12:47:05;20.70;99.90
6879;DHT22;3478;51.462;7.338;2022-10-31T12:52:30;21.10;99.90
6879;DHT22;3478;51.462;7.338;2022-10-31T12:57:41;21.10;99.90
6879;DHT22;3478;51.462;7.338;2022-10-31T13:02:48;21.30;99.90
6879;DHT22;3478;51.462;7.338;2022-10-31T13:07:55;21.70;99.90
6879;DHT22;3478;51.462;7.338;2022-10-31T13:13:05;21.90;99.90
6879;DHT22;3478;51.462;7.338;2022-10-31T13:18:16;22.10;99.90
6879;DHT22;3478;51.462;7.338;2022-10-31T13:23:26;22.20;99.90
6879;DHT22;3478;51.462;7.338;2022-10-31T13:28:35;22.30;99.90
6879;DHT22;3478;51.462;7.338;2022-10-31T13:33:40;22.00;99.90
6879;DHT22;3478;51.462;7.338;2022-10-31T13:38:49;21.70;99.90
6879;DHT22;3478;51.462;7.338;2022-10-31T13:43:59;21.70;99.90
6879;DHT22;3478;51.462;7.338;2022-10-31T13:49:02;21.60;99.90
6879;DHT22;3478;51.462;7.338;2022-10-31T13:54:19;21.30;99.90
6879;DHT22;3478;51.462;7.338;2022-10-31T13:59:24;21.20;99.90
6879;DHT22;3478;51.462;7.338;2022-10-31T14:04:32;21.10;99.90
6879;DHT22;3478;51.462;7.338;2022-10-31T14:09:37;21.20;99.90
6879;DHT22;3478;51.462;7.338;2022-10-31T14:14:45;21.30;99.90
6879;DHT22;3478;51.462;7.338;2022-10-31T14:25:31;21.60;99.90
6879;DHT22;3478;51.462;7.338;2022-10-31T14:30:36;22.60;99.90
6879;DHT22;3478;51.462;7.338;2022-10-31T14:35:51;24.10;99.90
6879;DHT22;3478;51.462;7.338;2022-10-31T14:41:08;24.80;99.90
6879;DHT22;3478;51.462;7.338;2022-10-31T14:46:19;24.40;99.90
6879;DHT22;3478;51.462;7.338;2022-10-31T14:51:29;23.40;99.90
6879;DHT22;3478;51.462;7.338;2022-10-31T14:56:35;22.60;99.90
6879;DHT22;3478;51.462;7.338;2022-10-31T15:01:52;21.80;99.90
6879;DHT22;3478;51.462;7.338;2022-10-31T15:07:05;21.30;99.90
6879;DHT22;3478;51.462;7.338;2022-10-31T15:12:26;21.20;99.90
6879;DHT22;3478;51.462;7.338;2022-10-31T15:17:30;20.90;99.90
6879;DHT22;3478;51.462;7.338;2022-10-31T15:22:32;20.50;99.90
6879;DHT22;3478;51.462;7.338;2022-10-31T15:27:34;20.40;99.90
6879;DHT22;3478;51.462;7.338;2022-10-31T15:32:44;20.30;99.90
6879;DHT22;3478;51.462;7.338;2022-10-31T15:37:46;20.20;99.90
6879;DHT22;3478;51.462;7.338;2022-10-31T15:42:51;19.90;99.90
6879;DHT22;3478;51.462;7.338;2022-10-31T15:47:57;19.70;99.90
6879;DHT22;3478;51.462;7.338;2022-10-31T15:53:00;19.50;99.90
6879;DHT22;3478;51.462;7.338;2022-10-31T15:58:11;19.40;99.90
6879;DHT22;3478;51.462;7.338;2022-10-31T16:03:25;19.20;99.90
6879;DHT22;3478;51.462;7.338;2022-10-31T16:08:37;19.00;99.90
6879;DHT22;3478;51.462;7.338;2022-10-31T16:13:54;18.80;99.90
6879;DHT22;3478;51.462;7.338;2022-10-31T16:19:00;18.60;99.90
6879;DHT22;3478;51.462;7.338;2022-10-31T16:24:05;18.40;99.90
6879;DHT22;3478;51.462;7.338;2022-10-31T16:29:25;18.20;99.90
6879;DHT22;3478;51.462;7.338;2022-10-31T16:34:29;18.00;99.90
6879;DHT22;3478;51.462;7.338;2022-10-31T16:39:30;17.80;99.90
6879;DHT22;3478;51.462;7.338;2022-10-31T16:44:32;17.60;99.90
6879;DHT22;3478;51.462;7.338;2022-10-31T16:49:36;17.40;99.90
6879;DHT22;3478;51.462;7.338;2022-10-31T16:54:37;17.30;99.90
6879;DHT22;3478;51.462;7.338;2022-10-31T16:59:39;17.20;99.90
6879;DHT22;3478;51.462;7.338;2022-10-31T17:04:43;17.20;99.90
6879;DHT22;3478;51.462;7.338;2022-10-31T17:09:45;17.10;99.90
6879;DHT22;3478;51.462;7.338;2022-10-31T17:14:49;17.10;99.90
6879;DHT22;3478;51.462;7.338;2022-10-31T17:19:53;17.10;99.90
6879;DHT22;3478;51.462;7.338;2022-10-31T17:24:55;17.10;99.90
6879;DHT22;3478;51.462;7.338;2022-10-31T17:29:57;17.10;99.90
6879;DHT22;3478;51.462;7.338;2022-10-31T17:35:00;17.10;99.90
6879;DHT22;3478;51.462;7.338;2022-10-31T17:40:02;17.10;99.90
6879;DHT22;3478;51.462;7.338;2022-10-31T17:45:05;17.10;99.90
6879;DHT22;3478;51.462;7.338;2022-10-31T17:50:09;17.10;99.90
6879;DHT22;3478;51.462;7.338;2022-10-31T17:55:11;17.10;99.90
6879;DHT22;3478;51.462;7.338;2022-10-31T18:00:16;17.20;99.90
6879;DHT22;3478;51.462;7.338;2022-10-31T18:05:20;17.30;99.90
6879;DHT22;3478;51.462;7.338;2022-10-31T18:10:22;17.40;99.90
6879;DHT22;3478;51.462;7.338;2022-10-31T18:15:23;17.60;99.90
6879;DHT22;3478;51.462;7.338;2022-10-31T18:20:27;17.60;99.90
6879;DHT22;3478;51.462;7.338;2022-10-31T18:25:28;17.60;99.90
6879;DHT22;3478;51.462;7.338;2022-10-31T18:30:30;17.60;99.90
6879;DHT22;3478;51.462;7.338;2022-10-31T18:35:35;17.50;99.90
6879;DHT22;3478;51.462;7.338;2022-10-31T18:40:38;17.50;99.90
6879;DHT22;3478;51.462;7.338;2022-10-31T18:45:40;17.50;99.90
6879;DHT22;3478;51.462;7.338;2022-10-31T18:50:43;17.50;99.90
6879;DHT22;3478;51.462;7.338;2022-10-31T18:55:45;17.40;99.90
6879;DHT22;3478;51.462;7.338;2022-10-31T19:00:47;17.40;99.90
6879;DHT22;3478;51.462;7.338;2022-10-31T19:05:53;17.30;99.90
6879;DHT22;3478;51.462;7.338;2022-10-31T19:10:55;17.30;99.90
6879;DHT22;3478;51.462;7.338;2022-10-31T19:16:02;17.20;99.90
6879;DHT22;3478;51.462;7.338;2022-10-31T19:21:06;17.20;99.90
6879;DHT22;3478;51.462;7.338;2022-10-31T19:26:09;17.20;99.90
6879;DHT22;3478;51.462;7.338;2022-10-31T19:31:10;17.20;99.90
6879;DHT22;3478;51.462;7.338;2022-10-31T19:36:15;17.20;99.90
6879;DHT22;3478;51.462;7.338;2022-10-31T19:41:19;17.20;99.90
6879;DHT22;3478;51.462;7.338;2022-10-31T19:46:22;17.10;99.90
6879;DHT22;3478;51.462;7.338;2022-10-31T19:51:26;17.10;99.90
6879;DHT22;3478;51.462;7.338;2022-10-31T19:56:27;17.10;99.90
6879;DHT22;3478;51.462;7.338;2022-10-31T20:01:29;17.00;99.90
6879;DHT22;3478;51.462;7.338;2022-10-31T20:06:34;17.00;99.90
6879;DHT22;3478;51.462;7.338;2022-10-31T20:11:37;17.00;99.90
6879;DHT22;3478;51.462;7.338;2022-10-31T20:16:39;17.00;99.90
6879;DHT22;3478;51.462;7.338;2022-10-31T20:21:42;16.90;99.90
6879;DHT22;3478;51.462;7.338;2022-10-31T20:26:44;16.90;99.90
6879;DHT22;3478;51.462;7.338;2022-10-31T20:31:46;16.90;99.90
6879;DHT22;3478;51.462;7.338;2022-10-31T20:36:49;16.90;99.90
6879;DHT22;3478;51.462;7.338;2022-10-31T20:41:51;16.80;99.90
6879;DHT22;3478;51.462;7.338;2022-10-31T20:46:53;16.80;99.90
6879;DHT22;3478;51.462;7.338;2022-10-31T20:51:56;16.90;99.90
6879;DHT22;3478;51.462;7.338;2022-10-31T20:56:58;16.80;99.90
6879;DHT22;3478;51.462;7.338;2022-10-31T21:02:00;16.70;99.90
6879;DHT22;3478;51.462;7.338;2022-10-31T21:07:03;16.90;99.90
6879;DHT22;3478;51.462;7.338;2022-10-31T21:12:05;17.00;99.90
6879;DHT22;3478;51.462;7.338;2022-10-31T21:17:08;17.10;99.90
6879;DHT22;3478;51.462;7.338;2022-10-31T21:22:11;17.10;99.90
6879;DHT22;3478;51.462;7.338;2022-10-31T21:27:13;17.10;99.90
6879;DHT22;3478;51.462;7.338;2022-10-31T21:32:15;17.10;99.90
6879;DHT22;3478;51.462;7.338;2022-10-31T21:37:18;17.10;99.90
6879;DHT22;3478;51.462;7.338;2022-10-31T21:42:21;17.20;99.90
6879;DHT22;3478;51.462;7.338;2022-10-31T21:47:23;17.20;99.90
6879;DHT22;3478;51.462;7.338;2022-10-31T21:52:26;17.20;99.90
6879;DHT22;3478;51.462;7.338;2022-10-31T21:57:28;17.30;99.90
6879;DHT22;3478;51.462;7.338;2022-10-31T22:02:30;17.20;99.90
6879;DHT22;3478;51.462;7.338;2022-10-31T22:07:33;17.20;99.90
6879;DHT22;3478;51.462;7.338;2022-10-31T22:12:35;17.20;99.90
6879;DHT22;3478;51.462;7.338;2022-10-31T22:17:38;17.30;99.90
6879;DHT22;3478;51.462;7.338;2022-10-31T22:22:41;17.30;99.90
6879;DHT22;3478;51.462;7.338;2022-10-31T22:27:43;17.30;99.90
6879;DHT22;3478;51.462;7.338;2022-10-31T22:32:45;17.40;99.90
6879;DHT22;3478;51.462;7.338;2022-10-31T22:37:48;17.40;99.90
6879;DHT22;3478;51.462;7.338;2022-10-31T22:42:50;17.40;99.90
6879;DHT22;3478;51.462;7.338;2022-10-31T22:47:52;17.40;99.90
6879;DHT22;3478;51.462;7.338;2022-10-31T22:52:55;17.30;99.90
6879;DHT22;3478;51.462;7.338;2022-10-31T22:57:57;17.40;99.90
6879;DHT22;3478;51.462;7.338;2022-10-31T23:02:58;17.40;99.90
6879;DHT22;3478;51.462;7.338;2022-10-31T23:08:02;17.30;99.90
6879;DHT22;3478;51.462;7.338;2022-10-31T23:13:03;17.30;99.90
6879;DHT22;3478;51.462;7.338;2022-10-31T23:18:23;17.30;99.90
6879;DHT22;3478;51.462;7.338;2022-10-31T23:23:26;17.40;99.90
6879;DHT22;3478;51.462;7.338;2022-10-31T23:28:28;17.40;99.90
6879;DHT22;3478;51.462;7.338;2022-10-31T23:33:30;17.40;99.90
6879;DHT22;3478;51.462;7.338;2022-10-31T23:38:33;17.50;99.90
6879;DHT22;3478;51.462;7.338;2022-10-31T23:43:35;17.60;99.90
6879;DHT22;3478;51.462;7.338;2022-10-31T23:48:37;17.60;99.90
6879;DHT22;3478;51.462;7.338;2022-10-31T23:53:42;17.60;99.90
6879;DHT22;3478;51.462;7.338;2022-10-31T23:58:44;17.60;99.90
